createdAt,value
2018-09-19T00:01:31.378Z,18.00
2018-09-19T00:03:58.938Z,18.00
2018-09-19T00:06:26.395Z,18.10
2018-09-19T00:08:53.852Z,18.00
2018-09-19T00:11:21.298Z,18.00
2018-09-19T00:13:48.769Z,18.00
2018-09-19T00:16:16.239Z,18.00
2018-09-19T00:18:43.713Z,18.10
2018-09-19T00:21:11.272Z,18.10
2018-09-19T00:23:38.732Z,18.10
2018-09-19T00:26:06.297Z,18.00
2018-09-19T00:28:33.769Z,18.00
2018-09-19T00:31:01.226Z,18.10
2018-09-19T00:33:28.792Z,18.10
2018-09-19T00:35:56.248Z,18.00
2018-09-19T00:38:23.696Z,18.00
2018-09-19T00:40:51.381Z,18.00
2018-09-19T00:43:18.944Z,18.00
2018-09-19T00:45:46.400Z,17.90
2018-09-19T00:48:13.865Z,17.80
2018-09-19T00:50:41.332Z,17.80
2018-09-19T00:53:08.785Z,17.60
2018-09-19T00:55:36.265Z,17.70
2018-09-19T00:58:03.715Z,17.70
2018-09-19T01:00:31.379Z,17.50
2018-09-19T01:02:58.835Z,17.30
2018-09-19T01:05:26.309Z,17.20
2018-09-19T01:07:53.934Z,17.10
2018-09-19T01:10:22.559Z,17.10
2018-09-19T01:12:50.011Z,17.10
2018-09-19T01:15:17.482Z,17.10
2018-09-19T01:17:44.954Z,17.20
2018-09-19T01:20:12.515Z,17.20
2018-09-19T01:22:40.075Z,17.20
2018-09-19T01:25:07.524Z,17.20
2018-09-19T01:27:34.983Z,17.30
2018-09-19T01:30:02.492Z,17.20
2018-09-19T01:32:30.707Z,17.30
2018-09-19T01:34:58.152Z,17.20
2018-09-19T01:37:25.634Z,17.20
2018-09-19T01:39:53.092Z,17.10
2018-09-19T01:42:20.534Z,17.10
2018-09-19T01:44:49.284Z,17.10
2018-09-19T01:47:16.844Z,17.00
2018-09-19T01:49:44.300Z,17.00
2018-09-19T01:52:11.866Z,17.00
2018-09-19T01:54:39.327Z,16.90
2018-09-19T01:57:06.796Z,16.90
2018-09-19T01:59:34.256Z,16.90
2018-09-19T02:02:01.719Z,16.90
2018-09-19T02:04:29.283Z,16.90
2018-09-19T02:06:56.785Z,16.90
2018-09-19T02:09:24.191Z,17.00
2018-09-19T02:11:51.673Z,16.90
2018-09-19T02:14:19.244Z,16.80
2018-09-19T02:16:46.708Z,16.70
2018-09-19T02:19:14.167Z,16.80
2018-09-19T02:21:41.617Z,16.80
2018-09-19T02:24:09.284Z,16.80
2018-09-19T02:26:36.748Z,16.60
2018-09-19T02:29:04.211Z,16.70
2018-09-19T02:31:31.884Z,16.80
2018-09-19T02:33:59.328Z,16.80
2018-09-19T02:36:26.781Z,16.70
2018-09-19T02:38:54.231Z,16.70
2018-09-19T02:41:21.676Z,16.80
2018-09-19T02:43:49.188Z,16.70
2018-09-19T02:46:16.650Z,16.60
2018-09-19T02:48:44.928Z,16.30
2018-09-19T02:51:12.488Z,16.30
2018-09-19T02:53:40.112Z,16.40
2018-09-19T02:56:07.619Z,16.50
2018-09-19T02:58:35.179Z,16.40
2018-09-19T03:01:02.747Z,16.30
2018-09-19T03:03:30.355Z,16.30
2018-09-19T03:05:58.589Z,16.20
2018-09-19T03:08:26.058Z,16.20
2018-09-19T03:10:53.637Z,16.30
2018-09-19T03:13:21.089Z,16.40
2018-09-19T03:15:48.655Z,16.40
2018-09-19T03:18:16.222Z,16.50
2018-09-19T03:20:43.774Z,16.50
2018-09-19T03:23:11.240Z,16.60
2018-09-19T03:25:38.684Z,16.40
2018-09-19T03:28:06.152Z,16.30
2018-09-19T03:30:33.741Z,16.30
2018-09-19T03:33:01.190Z,16.30
2018-09-19T03:35:28.721Z,16.30
2018-09-19T03:37:56.127Z,16.20
2018-09-19T03:40:23.576Z,16.20
2018-09-19T03:42:51.049Z,16.30
2018-09-19T03:45:18.530Z,16.30
2018-09-19T03:47:45.956Z,16.20
2018-09-19T03:50:13.490Z,16.40
2018-09-19T03:52:40.992Z,16.30
2018-09-19T03:57:37.450Z,16.20
2018-09-19T04:00:04.901Z,16.10
2018-09-19T04:02:32.467Z,16.30
2018-09-19T04:05:01.076Z,16.40
2018-09-19T04:07:28.516Z,16.40
2018-09-19T04:09:55.993Z,16.60
2018-09-19T04:12:23.665Z,16.50
2018-09-19T04:14:51.103Z,16.40
2018-09-19T04:17:18.557Z,16.30
2018-09-19T04:19:46.245Z,16.30
2018-09-19T04:22:13.811Z,16.20
2018-09-19T04:24:41.260Z,16.10
2018-09-19T04:27:08.747Z,16.10
2018-09-19T04:29:37.326Z,15.90
2018-09-19T04:32:05.974Z,15.80
2018-09-19T04:34:34.603Z,15.80
2018-09-19T04:37:03.228Z,15.70
2018-09-19T04:39:31.455Z,15.70
2018-09-19T04:42:00.050Z,15.60
2018-09-19T04:44:27.517Z,15.50
2018-09-19T04:46:55.074Z,15.70
2018-09-19T04:49:22.637Z,15.80
2018-09-19T04:51:50.097Z,15.70
2018-09-19T04:54:17.566Z,15.60
2018-09-19T04:56:45.023Z,15.50
2018-09-19T04:59:12.606Z,15.40
2018-09-19T05:01:40.117Z,15.60
2018-09-19T05:04:07.625Z,15.70
2018-09-19T05:06:35.093Z,15.50
2018-09-19T05:09:02.557Z,15.40
2018-09-19T05:11:30.072Z,15.30
2018-09-19T05:13:57.574Z,15.20
2018-09-19T05:16:25.146Z,15.30
2018-09-19T05:18:52.702Z,15.20
2018-09-19T05:21:20.149Z,15.20
2018-09-19T05:23:47.621Z,15.20
2018-09-19T05:26:15.080Z,15.30
2018-09-19T05:28:42.562Z,15.30
2018-09-19T05:31:11.235Z,15.30
2018-09-19T05:33:38.687Z,15.20
2018-09-19T05:36:06.160Z,15.20
2018-09-19T05:38:33.624Z,15.30
2018-09-19T05:41:01.208Z,15.30
2018-09-19T05:43:28.658Z,15.30
2018-09-19T05:45:57.253Z,15.20
2018-09-19T05:48:24.704Z,15.20
2018-09-19T05:50:52.269Z,15.20
2018-09-19T05:53:19.730Z,15.20
2018-09-19T05:55:47.189Z,15.20
2018-09-19T05:58:14.635Z,15.30
2018-09-19T06:00:42.103Z,15.40
2018-09-19T06:03:09.568Z,15.50
2018-09-19T06:05:37.018Z,15.40
2018-09-19T06:08:04.528Z,15.60
2018-09-19T06:10:31.985Z,15.60
2018-09-19T06:13:00.280Z,15.60
2018-09-19T06:15:27.713Z,15.60
2018-09-19T06:17:55.178Z,15.70
2018-09-19T06:20:22.639Z,15.70
2018-09-19T06:22:50.094Z,15.80
2018-09-19T06:25:17.551Z,15.90
2018-09-19T06:27:45.018Z,16.00
2018-09-19T06:30:12.471Z,16.10
2018-09-19T06:32:39.968Z,16.20
2018-09-19T06:35:07.413Z,16.20
2018-09-19T06:37:34.876Z,16.20
2018-09-19T06:40:02.407Z,16.20
2018-09-19T06:42:30.609Z,16.20
2018-09-19T06:44:58.055Z,16.20
2018-09-19T06:47:25.508Z,16.20
2018-09-19T06:49:52.975Z,16.10
2018-09-19T06:52:20.519Z,16.10
2018-09-19T06:54:48.016Z,16.20
2018-09-19T06:57:15.484Z,16.20
2018-09-19T06:59:43.111Z,16.30
2018-09-19T07:02:10.606Z,16.30
2018-09-19T07:04:38.268Z,16.30
2018-09-19T07:07:05.735Z,16.40
2018-09-19T07:09:33.184Z,16.40
2018-09-19T07:12:00.746Z,16.50
2018-09-19T07:14:28.203Z,16.70
2018-09-19T07:16:55.654Z,16.80
2018-09-19T07:19:23.166Z,16.90
2018-09-19T07:21:51.934Z,17.30
2018-09-19T07:24:19.394Z,17.30
2018-09-19T07:26:48.093Z,17.70
2018-09-19T07:29:15.661Z,17.60
2018-09-19T07:31:43.231Z,17.80
2018-09-19T07:34:10.708Z,17.90
2018-09-19T07:36:38.242Z,17.90
2018-09-19T07:39:05.717Z,18.10
2018-09-19T07:41:33.168Z,18.00
2018-09-19T07:44:01.766Z,18.40
2018-09-19T07:46:29.348Z,18.40
2018-09-19T07:48:56.779Z,18.60
2018-09-19T07:51:25.417Z,18.20
2018-09-19T07:53:53.776Z,18.00
2018-09-19T07:56:21.228Z,17.90
2018-09-19T07:58:48.685Z,18.00
2018-09-19T08:01:16.184Z,17.90
2018-09-19T08:03:43.811Z,17.80
2018-09-19T08:06:11.406Z,17.80
2018-09-19T08:08:39.655Z,17.90
2018-09-19T08:11:07.127Z,17.90
2018-09-19T08:13:34.593Z,18.00
2018-09-19T08:16:02.147Z,17.90
2018-09-19T08:18:29.610Z,17.90
2018-09-19T08:20:57.070Z,18.10
2018-09-19T08:23:24.639Z,18.20
2018-09-19T08:25:52.111Z,18.20
2018-09-19T08:28:19.648Z,18.30
2018-09-19T08:30:47.140Z,18.50
2018-09-19T08:33:14.609Z,18.50
2018-09-19T08:35:42.088Z,18.40
2018-09-19T08:38:09.626Z,18.40
2018-09-19T08:40:37.089Z,18.30
2018-09-19T08:43:04.596Z,18.30
2018-09-19T08:45:32.104Z,18.20
2018-09-19T08:47:59.581Z,18.30
2018-09-19T08:50:27.871Z,19.10
2018-09-19T08:52:55.298Z,19.10
2018-09-19T08:55:22.862Z,19.60
2018-09-19T08:57:50.329Z,20.20
2018-09-19T09:00:17.922Z,20.30
2018-09-19T09:02:46.382Z,20.40
2018-09-19T09:05:13.842Z,20.40
2018-09-19T09:07:41.309Z,20.70
2018-09-19T09:10:08.971Z,20.80
2018-09-19T09:12:36.616Z,20.70
2018-09-19T09:15:04.804Z,20.70
2018-09-19T09:17:32.273Z,20.70
2018-09-19T09:19:59.886Z,20.50
2018-09-19T09:22:28.101Z,20.80
2018-09-19T09:24:55.577Z,20.80
2018-09-19T09:27:23.060Z,20.80
2018-09-19T09:29:50.503Z,21.00
2018-09-19T09:34:44.813Z,21.00
2018-09-19T09:37:12.281Z,21.10
2018-09-19T09:39:39.757Z,21.20
2018-09-19T09:42:08.339Z,21.60
2018-09-19T09:44:35.888Z,21.50
2018-09-19T09:47:03.342Z,21.30
2018-09-19T09:49:30.914Z,21.60
2018-09-19T09:51:58.375Z,21.40
2018-09-19T09:54:25.842Z,21.40
2018-09-19T09:56:53.404Z,21.50
2018-09-19T09:59:20.971Z,21.50
2018-09-19T10:01:48.439Z,21.50
2018-09-19T10:04:15.919Z,21.60
2018-09-19T10:06:43.366Z,21.70
2018-09-19T10:09:12.015Z,22.10
2018-09-19T10:11:40.635Z,21.70
2018-09-19T10:16:36.895Z,21.60
2018-09-19T10:19:04.352Z,21.70
2018-09-19T10:21:31.916Z,21.30
2018-09-19T10:23:59.371Z,21.10
2018-09-19T10:26:27.987Z,20.80
2018-09-19T10:28:56.210Z,20.90
2018-09-19T10:31:23.667Z,20.80
2018-09-19T10:33:51.125Z,21.40
2018-09-19T10:36:18.644Z,21.40
2018-09-19T10:38:46.092Z,21.60
2018-09-19T10:41:13.686Z,21.60
2018-09-19T10:43:41.886Z,21.90
2018-09-19T10:46:10.124Z,21.80
2018-09-19T10:48:37.695Z,21.80
2018-09-19T10:51:05.245Z,21.80
2018-09-19T10:53:33.943Z,22.30
2018-09-19T10:56:01.384Z,22.30
2018-09-19T10:58:28.961Z,22.30
2018-09-19T11:00:56.418Z,22.20
2018-09-19T11:03:23.922Z,22.20
2018-09-19T11:05:52.178Z,22.10
2018-09-19T11:08:19.704Z,22.10
2018-09-19T11:20:43.357Z,22.30
2018-09-19T11:23:10.817Z,22.30
2018-09-19T11:25:38.264Z,22.60
2018-09-19T11:28:05.770Z,22.50
2018-09-19T11:30:33.333Z,22.40
2018-09-19T11:33:00.912Z,22.60
2018-09-19T11:35:28.363Z,22.60
2018-09-19T11:37:55.828Z,22.70
2018-09-19T11:40:23.288Z,22.50
2018-09-19T11:42:51.512Z,22.70
2018-09-19T11:45:19.739Z,22.80
2018-09-19T11:47:47.214Z,22.80
2018-09-19T11:50:15.905Z,23.00
2018-09-19T11:52:43.375Z,23.00
2018-09-19T11:55:10.925Z,22.90
2018-09-19T11:57:38.389Z,23.10
2018-09-19T12:00:05.858Z,23.00
2018-09-19T12:02:33.320Z,22.90
2018-09-19T12:05:00.779Z,22.80
2018-09-19T12:07:28.382Z,22.90
2018-09-19T12:09:56.218Z,22.80
2018-09-19T12:12:23.671Z,22.90
2018-09-19T12:14:51.128Z,22.80
2018-09-19T12:17:18.602Z,22.80
2018-09-19T12:19:47.205Z,22.50
2018-09-19T12:22:15.483Z,22.40
2018-09-19T12:24:44.160Z,22.20
2018-09-19T12:27:11.620Z,22.20
2018-09-19T12:29:39.183Z,22.30
2018-09-19T12:32:06.750Z,22.30
2018-09-19T12:34:34.315Z,22.40
2018-09-19T12:37:01.764Z,22.50
2018-09-19T12:39:29.271Z,22.60
2018-09-19T12:41:58.021Z,23.00
2018-09-19T12:44:25.498Z,23.00
2018-09-19T12:46:53.051Z,22.90
2018-09-19T12:49:20.681Z,22.90
2018-09-19T12:51:48.161Z,23.00
2018-09-19T12:54:15.980Z,23.00
2018-09-19T12:56:43.480Z,23.00
2018-09-19T12:59:10.932Z,23.10
2018-09-19T13:01:38.434Z,23.20
2018-09-19T13:04:05.945Z,23.30
2018-09-19T13:06:34.357Z,23.20
2018-09-19T13:09:01.816Z,23.20
2018-09-19T13:11:29.315Z,23.00
2018-09-19T13:13:56.975Z,23.00
2018-09-19T13:16:24.426Z,23.00
2018-09-19T13:18:51.897Z,23.10
2018-09-19T13:21:19.480Z,23.10
2018-09-19T13:23:47.041Z,23.10
2018-09-19T13:26:14.489Z,23.20
2018-09-19T13:28:41.946Z,23.30
2018-09-19T13:31:09.431Z,23.20
2018-09-19T13:33:36.889Z,23.00
2018-09-19T13:36:04.347Z,23.00
2018-09-19T13:38:31.906Z,23.00
2018-09-19T13:40:59.434Z,23.00
2018-09-19T13:43:26.871Z,23.10
2018-09-19T13:45:55.107Z,23.10
2018-09-19T13:48:22.564Z,23.10
2018-09-19T13:50:50.054Z,23.10
2018-09-19T13:53:17.503Z,23.20
2018-09-19T13:55:44.956Z,23.10
2018-09-19T13:58:12.415Z,23.10
2018-09-19T14:00:40.027Z,23.10
2018-09-19T14:03:08.245Z,23.00
2018-09-19T14:05:35.731Z,23.00
2018-09-19T14:08:03.492Z,23.00
2018-09-19T14:10:30.973Z,23.10
2018-09-19T14:12:59.184Z,23.00
2018-09-19T14:15:27.412Z,23.00
2018-09-19T14:17:54.859Z,23.00
2018-09-19T14:20:22.343Z,22.90
2018-09-19T14:22:49.806Z,23.00
2018-09-19T14:25:17.255Z,23.00
2018-09-19T14:27:44.721Z,23.00
2018-09-19T14:30:12.196Z,23.00
2018-09-19T14:32:39.652Z,23.10
2018-09-19T14:35:07.109Z,23.10
2018-09-19T14:37:34.579Z,23.00
2018-09-19T14:40:02.152Z,23.00
2018-09-19T14:42:29.615Z,23.00
2018-09-19T14:44:57.076Z,22.90
2018-09-19T14:47:24.551Z,22.90
2018-09-19T14:49:52.010Z,22.90
2018-09-19T14:52:20.233Z,22.90
2018-09-19T14:54:47.735Z,22.90
2018-09-19T14:57:15.193Z,22.70
2018-09-19T14:59:42.649Z,22.80
2018-09-19T15:02:11.246Z,23.00
2018-09-19T15:04:38.761Z,23.00
2018-09-19T15:07:07.024Z,22.80
2018-09-19T15:09:35.670Z,22.70
2018-09-19T15:12:03.131Z,22.70
2018-09-19T15:14:31.851Z,22.70
2018-09-19T15:16:59.363Z,22.70
2018-09-19T15:19:26.816Z,22.80
2018-09-19T15:21:54.272Z,22.70
2018-09-19T15:24:21.865Z,22.90
2018-09-19T15:26:49.256Z,22.80
2018-09-19T15:29:16.717Z,22.80
2018-09-19T15:31:44.200Z,22.80
2018-09-19T15:34:11.758Z,22.70
2018-09-19T15:36:40.742Z,22.70
2018-09-19T15:39:08.300Z,22.70
2018-09-19T15:41:35.754Z,22.70
2018-09-19T15:44:03.315Z,22.70
2018-09-19T15:46:30.787Z,22.60
2018-09-19T15:48:58.352Z,22.60
2018-09-19T15:51:25.814Z,22.50
2018-09-19T15:53:53.377Z,22.60
2018-09-19T15:56:20.837Z,22.50
2018-09-19T15:58:48.397Z,22.50
2018-09-19T16:01:15.974Z,22.40
2018-09-19T16:03:44.706Z,22.50
2018-09-19T16:06:12.973Z,22.60
2018-09-19T16:08:40.405Z,22.60
2018-09-19T16:11:07.973Z,22.50
2018-09-19T16:13:35.425Z,22.70
2018-09-19T16:16:02.889Z,22.60
2018-09-19T16:18:30.336Z,22.60
2018-09-19T16:20:57.828Z,22.60
2018-09-19T16:23:25.384Z,22.60
2018-09-19T16:25:52.935Z,22.60
2018-09-19T16:28:20.396Z,22.50
2018-09-19T16:30:47.862Z,22.60
2018-09-19T16:50:37.302Z,22.30
2018-09-19T16:53:04.760Z,22.10
2018-09-19T16:55:32.988Z,22.00
2018-09-19T16:58:00.487Z,22.00
2018-09-19T17:00:27.958Z,22.10
2018-09-19T17:02:55.518Z,22.00
2018-09-19T17:05:22.968Z,22.10
2018-09-19T17:07:50.431Z,22.00
2018-09-19T17:10:17.918Z,21.90
2018-09-19T17:12:45.377Z,21.90
2018-09-19T17:15:12.899Z,22.00
2018-09-19T17:17:40.325Z,21.90
2018-09-19T17:20:08.536Z,21.80
2018-09-19T17:22:35.993Z,21.80
2018-09-19T17:25:04.635Z,21.80
2018-09-19T17:27:32.091Z,21.70
2018-09-19T17:29:59.663Z,21.70
2018-09-19T17:32:28.634Z,21.70
2018-09-19T17:52:18.380Z,21.50
2018-09-19T17:54:45.939Z,21.60
2018-09-19T17:57:13.395Z,21.50
2018-09-19T17:59:40.972Z,21.50
2018-09-19T18:02:09.572Z,21.30
2018-09-19T18:04:37.020Z,21.30
2018-09-19T18:07:04.612Z,21.40
2018-09-19T18:09:32.820Z,21.30
2018-09-19T18:12:00.327Z,21.30
2018-09-19T18:14:27.790Z,21.30
2018-09-19T18:16:55.254Z,21.30
2018-09-19T18:19:22.720Z,21.20
2018-09-19T18:21:50.200Z,21.30
2018-09-19T18:24:18.868Z,21.20
2018-09-19T18:26:46.421Z,21.20
2018-09-19T18:29:13.892Z,21.20
2018-09-19T18:31:41.448Z,21.20
2018-09-19T18:34:08.912Z,21.10
2018-09-19T18:36:36.481Z,21.20
2018-09-19T18:39:03.949Z,21.30
2018-09-19T18:41:32.913Z,21.20
2018-09-19T18:44:00.411Z,21.20
2018-09-19T18:46:29.383Z,21.10
2018-09-19T18:48:56.914Z,21.00
2018-09-19T18:51:24.418Z,21.00
2018-09-19T18:53:52.159Z,21.10
2018-09-19T18:56:19.607Z,21.20
2018-09-19T18:58:47.073Z,21.10
2018-09-19T19:01:14.539Z,21.00
2018-09-19T19:03:42.049Z,20.90
2018-09-19T19:06:09.508Z,21.00
2018-09-19T19:08:37.172Z,20.90
2018-09-19T19:11:04.741Z,20.90
2018-09-19T19:13:32.195Z,21.00
2018-09-19T19:15:59.659Z,21.00
2018-09-19T19:18:27.111Z,20.90
2018-09-19T19:20:54.567Z,21.00
2018-09-19T19:23:22.239Z,21.00
2018-09-19T19:25:49.686Z,20.80
2018-09-19T19:28:17.143Z,20.90
2018-09-19T19:30:44.678Z,20.90
2018-09-19T19:33:12.204Z,20.90
2018-09-19T19:35:39.651Z,20.80
2018-09-19T19:38:07.306Z,20.80
2018-09-19T19:40:34.776Z,20.70
2018-09-19T19:43:02.252Z,20.80
2018-09-19T19:45:29.704Z,20.80
2018-09-19T19:47:57.163Z,20.80
2018-09-19T19:50:24.630Z,20.90
2018-09-19T19:52:52.196Z,20.70
2018-09-19T19:55:20.511Z,20.60
2018-09-19T19:57:48.722Z,20.50
2018-09-19T20:00:16.180Z,20.50
2018-09-19T20:02:43.646Z,20.60
2018-09-19T20:05:11.093Z,20.50
2018-09-19T20:07:38.825Z,20.50
2018-09-19T20:10:07.816Z,20.40
2018-09-19T20:12:35.410Z,20.40
2018-09-19T20:15:02.935Z,20.40
2018-09-19T20:17:30.493Z,20.50
2018-09-19T20:19:57.952Z,20.60
2018-09-19T20:22:25.424Z,20.50
2018-09-19T20:24:52.987Z,20.50
2018-09-19T20:27:20.456Z,20.40
2018-09-19T20:29:47.902Z,20.50
2018-09-19T20:32:15.377Z,20.40
2018-09-19T20:34:42.945Z,20.40
2018-09-19T20:37:10.503Z,20.30
2018-09-19T20:39:39.188Z,20.30
2018-09-19T20:42:06.648Z,20.30
2018-09-19T20:44:34.124Z,20.30
2018-09-19T20:47:01.699Z,20.30
2018-09-19T20:49:29.251Z,20.20
2018-09-19T20:51:56.819Z,20.30
2018-09-19T20:54:24.260Z,20.30
2018-09-19T20:56:51.735Z,20.30
2018-09-19T20:59:19.300Z,20.30
2018-09-19T21:01:46.757Z,20.10
2018-09-19T21:04:14.245Z,20.20
2018-09-19T21:06:41.676Z,20.30
2018-09-19T21:09:09.132Z,20.30
2018-09-19T21:11:36.603Z,20.20
2018-09-19T21:14:04.176Z,20.30
2018-09-19T21:16:31.679Z,20.20
2018-09-19T21:18:59.913Z,20.20
2018-09-19T21:21:27.413Z,20.20
2018-09-19T21:23:54.945Z,20.20
2018-09-19T21:26:22.399Z,20.20
2018-09-19T21:28:49.854Z,20.20
2018-09-19T21:31:17.309Z,20.20
2018-09-19T21:33:44.783Z,20.20
2018-09-19T21:36:12.262Z,20.20
2018-09-19T21:38:39.806Z,20.20
2018-09-19T21:41:07.304Z,20.20
2018-09-19T21:43:35.522Z,20.10
2018-09-19T21:46:02.984Z,20.10
2018-09-19T21:48:30.499Z,20.10
2018-09-19T21:50:57.919Z,20.10
2018-09-19T21:53:25.385Z,20.10
2018-09-19T21:55:52.843Z,20.10
2018-09-19T21:58:20.325Z,20.10
2018-09-19T22:00:47.786Z,20.10
2018-09-19T22:03:15.231Z,20.20
2018-09-19T22:05:42.687Z,20.10
2018-09-19T22:08:10.377Z,20.10
2018-09-19T22:10:37.862Z,20.10
2018-09-19T22:13:05.334Z,20.10
2018-09-19T22:15:33.551Z,20.00
2018-09-19T22:18:01.056Z,20.00
2018-09-19T22:20:28.617Z,20.00
2018-09-19T22:22:56.296Z,20.10
2018-09-19T22:25:24.518Z,20.10
2018-09-19T22:27:51.973Z,20.10
2018-09-19T22:30:19.491Z,20.10
2018-09-19T22:32:46.948Z,20.00
2018-09-19T22:35:14.412Z,20.10
2018-09-19T22:37:41.860Z,20.00
2018-09-19T22:40:09.315Z,20.00
2018-09-19T22:42:36.793Z,19.90
2018-09-19T22:45:04.271Z,19.90
2018-09-19T22:47:31.816Z,19.90
2018-09-19T22:49:59.272Z,20.00
2018-09-19T22:52:26.737Z,20.00
2018-09-19T22:54:54.208Z,20.00
2018-09-19T22:57:21.673Z,20.00
2018-09-19T22:59:49.232Z,20.00
2018-09-19T23:02:16.697Z,20.00
2018-09-19T23:04:44.144Z,19.90
2018-09-19T23:07:11.636Z,19.90
2018-09-19T23:09:39.109Z,20.00
2018-09-19T23:12:07.322Z,19.80
2018-09-19T23:14:35.920Z,19.70
2018-09-19T23:17:03.476Z,19.70
2018-09-19T23:19:30.977Z,19.80
2018-09-19T23:21:58.646Z,19.80
2018-09-19T23:24:26.112Z,19.70
2018-09-19T23:26:53.571Z,19.70
2018-09-19T23:29:21.031Z,19.70
2018-09-19T23:31:48.610Z,19.80
2018-09-19T23:34:16.167Z,19.70
2018-09-19T23:36:43.738Z,19.70
2018-09-19T23:39:11.395Z,19.70
2018-09-19T23:41:38.849Z,19.70
2018-09-19T23:44:06.309Z,19.60
2018-09-19T23:46:33.987Z,19.60
2018-09-19T23:49:01.545Z,19.60
2018-09-19T23:51:28.991Z,19.50
2018-09-19T23:53:56.455Z,19.50
2018-09-19T23:56:23.922Z,19.60
2018-09-19T23:58:51.497Z,19.60
